Time;durP1;ratioP1;P1;durP2;ratioP2;P2;SDS_P1;SDS_P2;PMS_P1;PMS_P2;Temp;Humidity;BMP_temperature;BMP_pressure;BME280_temperature;BME280_humidity;BME280_pressure;Samples;Min_cycle;Max_cycle;Signal;HPM_P1;HPM_P2
2021/09/15 00:00:19;;;;;;;7.25;4.65;;;;;;;20.35;58.09;100758.28;4906125;29;20821;-74
2021/09/15 00:02:44;;;;;;;6.43;4.13;;;;;;;20.40;58.05;100743.00;4932780;28;20402;-74
2021/09/15 00:05:10;;;;;;;5.55;3.95;;;;;;;20.17;57.88;100718.97;4909454;29;20047;-76
2021/09/15 00:07:35;;;;;;;6.47;4.15;;;;;;;20.29;58.53;100745.16;4896243;29;20044;-75
2021/09/15 00:10:01;;;;;;;7.43;3.58;;;;;;;20.13;57.99;100727.97;4906334;29;20028;-74
2021/09/15 00:12:27;;;;;;;6.75;4.30;;;;;;;20.19;57.91;100722.44;4906893;29;20565;-75
2021/09/15 00:14:53;;;;;;;7.45;4.05;;;;;;;20.41;57.39;100743.88;4903172;29;20028;-76
2021/09/15 00:17:18;;;;;;;4.88;3.08;;;;;;;20.39;57.47;100754.59;4904881;29;20084;-74
2021/09/15 00:19:44;;;;;;;7.65;3.92;;;;;;;20.08;58.00;100746.78;4909558;29;20087;-73
2021/09/15 00:22:09;;;;;;;5.90;3.47;;;;;;;19.91;58.95;100751.81;4906334;29;20047;-75
2021/09/15 00:24:35;;;;;;;11.68;3.80;;;;;;;20.12;58.25;100747.56;4900839;29;20040;-76
2021/09/15 00:27:00;;;;;;;7.82;3.45;;;;;;;20.43;57.55;100752.69;4905543;29;20051;-75
2021/09/15 00:29:25;;;;;;;5.93;3.38;;;;;;;20.40;57.57;100752.81;4898725;29;20065;-75
2021/09/15 00:31:51;;;;;;;6.72;3.60;;;;;;;20.35;58.73;100754.78;4902679;29;20363;-75
2021/09/15 00:34:17;;;;;;;7.75;3.92;;;;;;;20.54;58.23;100746.97;4907614;29;20040;-75
2021/09/15 00:36:42;;;;;;;9.65;5.05;;;;;;;20.09;58.84;100739.66;4906490;29;20079;-75
2021/09/15 00:39:07;;;;;;;9.25;3.72;;;;;;;19.93;59.21;100748.19;4904092;29;20028;-75
2021/09/15 00:41:33;;;;;;;5.78;3.60;;;;;;;19.92;59.01;100727.78;4906148;29;20035;-75
2021/09/15 00:44:00;;;;;;;6.85;3.20;;;;;;;19.79;59.73;100745.09;4904484;29;20091;-75
2021/09/15 00:46:26;;;;;;;7.22;3.90;;;;;;;19.77;59.59;100753.13;4905549;29;20115;-75
2021/09/15 00:48:52;;;;;;;8.48;4.13;;;;;;;19.86;59.47;100720.00;4908933;29;20143;-75
2021/09/15 00:51:18;;;;;;;6.93;4.15;;;;;;;20.31;58.65;100750.47;4904776;29;20123;-77
2021/09/15 00:53:44;;;;;;;13.55;4.55;;;;;;;20.43;58.57;100752.69;4900999;29;20119;-76
2021/09/15 00:56:09;;;;;;;6.70;4.47;;;;;;;20.37;58.00;100727.13;4901302;29;20191;-77
2021/09/15 00:58:34;;;;;;;5.90;4.68;;;;;;;19.69;60.54;100755.19;4897429;29;20035;-76
2021/09/15 01:01:00;;;;;;;7.68;4.43;;;;;;;19.45;60.59;100734.63;4911445;29;20564;-74
2021/09/15 01:03:25;;;;;;;6.35;4.13;;;;;;;19.70;59.99;100753.41;4906331;29;20028;-73
2021/09/15 01:05:51;;;;;;;5.78;3.72;;;;;;;19.55;59.60;100752.94;4908292;29;20036;-75
2021/09/15 01:08:17;;;;;;;6.68;3.78;;;;;;;19.81;59.02;100744.13;4904889;29;20505;-74
2021/09/15 01:10:43;;;;;;;5.72;3.55;;;;;;;19.65;58.31;100726.03;4905424;29;20140;-74
2021/09/15 01:13:10;;;;;;;12.63;4.10;;;;;;;19.56;58.72;100741.34;4895463;29;20057;-76
2021/09/15 01:15:36;;;;;;;6.43;3.67;;;;;;;19.96;57.86;100725.91;4911760;29;20103;-75
2021/09/15 01:18:18;;;;;;;5.78;3.80;;;;;;;19.88;57.63;100719.94;4904963;29;20536;-80
2021/09/15 01:20:44;;;;;;;8.48;4.30;;;;;;;20.03;57.55;100744.28;4907092;29;20036;-75
2021/09/15 01:23:09;;;;;;;7.70;3.72;;;;;;;20.08;57.70;100730.78;4901962;29;20048;-74
2021/09/15 01:25:35;;;;;;;7.38;4.35;;;;;;;20.17;57.34;100727.81;4909362;29;20032;-75
2021/09/15 01:28:00;;;;;;;5.28;4.22;;;;;;;20.32;57.10;100745.09;4909354;29;20032;-76
2021/09/15 01:30:26;;;;;;;9.32;4.75;;;;;;;20.17;57.62;100758.94;4906898;29;20043;-75
2021/09/15 01:32:51;;;;;;;5.85;4.38;;;;;;;20.03;58.23;100752.25;4907101;29;20103;-75
2021/09/15 01:35:17;;;;;;;9.13;4.75;;;;;;;20.08;57.79;100728.13;4909278;29;20064;-75
2021/09/15 01:37:43;;;;;;;8.57;5.05;;;;;;;20.01;57.96;100734.59;4906067;29;20655;-75
2021/09/15 01:40:09;;;;;;;6.82;4.80;;;;;;;20.10;57.94;100744.94;4903840;29;20119;-74
2021/09/15 01:42:34;;;;;;;6.97;3.90;;;;;;;20.13;58.24;100751.94;4901824;29;20059;-75
2021/09/15 01:45:00;;;;;;;9.10;5.63;;;;;;;19.92;59.01;100761.53;4907558;29;20047;-77
2021/09/15 01:47:26;;;;;;;11.85;5.57;;;;;;;19.69;58.92;100707.25;4900322;29;20425;-77
2021/09/15 01:49:51;;;;;;;6.90;4.78;;;;;;;19.89;59.53;100757.19;4907746;29;20124;-77
2021/09/15 01:52:17;;;;;;;8.00;4.90;;;;;;;19.67;59.96;100733.03;4909480;29;20024;-77
2021/09/15 01:54:45;;;;;;;6.63;5.25;;;;;;;19.77;60.14;100738.97;4893604;29;20059;-75
2021/09/15 01:57:11;;;;;;;6.93;4.07;;;;;;;19.83;59.59;100730.78;4906289;29;20044;-76
2021/09/15 01:59:36;;;;;;;7.40;5.85;;;;;;;19.75;59.97;100740.78;4901719;29;20036;-77
2021/09/15 02:02:02;;;;;;;9.70;5.50;;;;;;;19.62;60.25;100719.00;4907919;29;20028;-75
2021/09/15 02:04:28;;;;;;;10.35;5.57;;;;;;;19.72;60.68;100756.88;4903069;29;20047;-75
2021/09/15 02:06:54;;;;;;;9.30;6.32;;;;;;;19.37;61.21;100741.06;4909561;29;20393;-74
2021/09/15 02:09:20;;;;;;;12.35;6.13;;;;;;;19.56;61.27;100759.13;4911282;29;20048;-78
2021/09/15 02:11:46;;;;;;;10.82;6.55;;;;;;;19.66;61.09;100752.56;4905810;29;20042;-76
2021/09/15 02:14:11;;;;;;;9.85;6.53;;;;;;;19.74;60.64;100752.38;4905404;29;20031;-75
2021/09/15 02:16:37;;;;;;;9.90;5.70;;;;;;;20.01;60.04;100751.44;4909936;29;20112;-75
2021/09/15 02:19:03;;;;;;;10.25;7.32;;;;;;;19.58;61.29;100754.63;4909361;29;20033;-77
2021/09/15 02:21:28;;;;;;;10.85;6.40;;;;;;;19.76;60.43;100759.41;4900612;29;20044;-73
2021/09/15 02:23:55;;;;;;;10.65;7.50;;;;;;;19.39;61.34;100733.91;4902984;29;20543;-74
2021/09/15 02:26:21;;;;;;;12.43;6.22;;;;;;;19.56;61.07;100744.00;4898682;29;20040;-75
2021/09/15 02:28:46;;;;;;;10.15;6.38;;;;;;;19.58;60.91;100755.50;4933342;28;20079;-77
2021/09/15 02:31:12;;;;;;;11.50;7.40;;;;;;;19.42;61.45;100762.22;4907604;29;20040;-75
2021/09/15 02:33:37;;;;;;;9.70;6.30;;;;;;;19.39;61.16;100727.72;4910444;29;20016;-78
2021/09/15 02:36:03;;;;;;;11.57;6.70;;;;;;;19.64;60.68;100737.56;4902659;29;20409;-75
2021/09/15 02:38:29;;;;;;;9.80;6.18;;;;;;;19.49;60.63;100738.94;4908589;29;20036;-74
2021/09/15 02:40:55;;;;;;;10.77;7.18;;;;;;;19.63;60.62;100747.34;4907796;29;20103;-76
2021/09/15 02:43:21;;;;;;;13.73;6.00;;;;;;;19.54;60.99;100767.16;4902084;29;20447;-78
2021/09/15 02:45:46;;;;;;;10.45;6.72;;;;;;;19.22;62.00;100776.13;4909266;29;20046;-76
2021/09/15 02:48:12;;;;;;;7.88;5.93;;;;;;;18.99;62.84;100768.84;4903710;29;20063;-75
2021/09/15 02:50:37;;;;;;;8.77;6.43;;;;;;;18.97;62.92;100771.53;4901141;29;20068;-76
2021/09/15 02:53:03;;;;;;;8.95;7.18;;;;;;;19.11;62.36;100768.47;4907268;29;20031;-76
2021/09/15 02:55:28;;;;;;;9.18;6.53;;;;;;;19.32;61.82;100766.09;4903720;29;20087;-76
2021/09/15 02:57:54;;;;;;;12.35;6.80;;;;;;;19.29;60.92;100715.59;4907134;29;20833;-78
2021/09/15 03:00:19;;;;;;;10.68;6.07;;;;;;;19.39;61.20;100755.19;4909402;29;20651;-75
2021/09/15 03:02:45;;;;;;;10.48;5.65;;;;;;;19.34;61.54;100769.59;4899544;29;20453;-76
2021/09/15 03:05:11;;;;;;;9.73;6.50;;;;;;;19.56;61.41;100777.75;4905241;29;20059;-75
2021/09/15 03:07:37;;;;;;;11.63;6.10;;;;;;;19.44;61.74;100772.81;4904087;29;20039;-75
2021/09/15 03:10:07;;;;;;;8.50;5.50;;;;;;;19.44;61.22;100783.47;4908481;29;20042;-76
2021/09/15 03:12:33;;;;;;;12.13;4.90;;;;;;;19.53;60.93;100778.72;4938531;28;20043;-75
2021/09/15 03:14:59;;;;;;;7.93;5.40;;;;;;;19.78;59.81;100756.66;4901694;29;20040;-74
2021/09/15 03:17:24;;;;;;;10.43;6.28;;;;;;;19.74;59.90;100779.00;4894910;29;20402;-76
2021/09/15 03:19:50;;;;;;;8.65;6.03;;;;;;;19.67;59.88;100754.34;4906186;29;20111;-76
2021/09/15 03:22:15;;;;;;;11.75;5.68;;;;;;;19.79;59.92;100785.91;4916574;29;20046;-74
2021/09/15 03:24:41;;;;;;;7.97;5.18;;;;;;;19.84;59.76;100776.91;4903380;29;20052;-76
2021/09/15 03:27:06;;;;;;;10.27;5.47;;;;;;;19.46;60.82;100769.19;4910179;29;20481;-76
2021/09/15 03:29:33;;;;;;;7.97;6.07;;;;;;;19.89;59.87;100782.97;4909528;29;20036;-76
2021/09/15 03:31:59;;;;;;;11.73;5.15;;;;;;;19.47;60.29;100765.59;4901954;29;20041;-78
2021/09/15 03:34:24;;;;;;;10.75;6.30;;;;;;;19.61;60.69;100790.00;4903630;29;20044;-75
2021/09/15 03:36:51;;;;;;;7.47;5.15;;;;;;;19.50;60.73;100778.84;4899936;29;20032;-75
2021/09/15 03:39:16;;;;;;;9.13;6.20;;;;;;;19.95;59.29;100783.63;4923712;29;20048;-74
2021/09/15 03:41:42;;;;;;;8.38;5.40;;;;;;;19.94;59.27;100797.00;4908204;29;20047;-76
2021/09/15 03:44:07;;;;;;;7.70;5.30;;;;;;;19.46;60.14;100771.84;4906835;29;20032;-75
2021/09/15 03:46:33;;;;;;;8.88;6.82;;;;;;;19.74;59.89;100781.66;4904962;29;20036;-76
2021/09/15 03:49:01;;;;;;;17.77;7.47;;;;;;;19.72;60.14;100807.47;4903039;29;20083;-75
2021/09/15 03:51:26;;;;;;;8.80;6.85;;;;;;;19.72;59.71;100778.19;4895381;29;20142;-74
2021/09/15 03:53:52;;;;;;;10.27;6.35;;;;;;;19.93;59.60;100800.59;4905572;29;20076;-75
2021/09/15 03:56:18;;;;;;;10.25;5.88;;;;;;;19.99;59.48;100801.25;4902793;29;20103;-76
2021/09/15 03:58:43;;;;;;;9.27;5.82;;;;;;;19.89;59.34;100770.50;4897607;29;20074;-76
2021/09/15 04:01:10;;;;;;;8.73;6.32;;;;;;;19.65;60.06;100809.41;4905127;29;20071;-76
2021/09/15 04:03:36;;;;;;;9.45;6.32;;;;;;;19.55;60.29;100803.50;4904400;29;20513;-78
2021/09/15 04:06:02;;;;;;;7.80;6.03;;;;;;;19.55;60.85;100808.84;4908139;29;20124;-77
2021/09/15 04:08:27;;;;;;;7.13;5.07;;;;;;;19.98;59.54;100810.16;4898158;29;20135;-78
2021/09/15 04:10:53;;;;;;;11.45;5.55;;;;;;;19.80;59.47;100803.63;4907050;29;20352;-76
2021/09/15 04:13:18;;;;;;;7.22;5.40;;;;;;;19.43;60.42;100777.25;4904108;29;20048;-75
2021/09/15 04:15:44;;;;;;;8.80;6.10;;;;;;;19.81;60.28;100809.84;4916363;29;20588;-76
2021/09/15 04:18:10;;;;;;;8.88;6.57;;;;;;;19.88;59.78;100799.84;4903833;29;20529;-76
2021/09/15 04:20:35;;;;;;;9.77;6.65;;;;;;;19.49;60.53;100779.72;4908455;29;20746;-76
2021/09/15 04:23:01;;;;;;;10.82;6.40;;;;;;;19.45;61.08;100785.19;4937776;29;20683;-78
2021/09/15 04:33:39;;;;;;;15.15;8.27;;;;;;;19.80;60.22;100824.06;4904413;29;20047;-75
2021/09/15 04:36:04;;;;;;;10.70;6.90;;;;;;;19.70;60.48;100814.63;4907753;29;20040;-74
2021/09/15 04:38:30;;;;;;;10.68;7.80;;;;;;;19.68;60.52;100795.13;4909465;29;20108;-77
2021/09/15 04:40:55;;;;;;;11.43;7.22;;;;;;;20.04;59.61;100801.09;4913670;29;20508;-75
2021/09/15 04:43:21;;;;;;;12.55;6.65;;;;;;;20.03;59.88;100824.19;4898222;29;20414;-75
2021/09/15 04:45:47;;;;;;;10.82;6.70;;;;;;;19.95;60.40;100812.06;4917761;29;20203;-75
2021/09/15 04:48:12;;;;;;;8.93;6.88;;;;;;;19.70;60.31;100803.97;4904792;29;20134;-78
2021/09/15 04:50:38;;;;;;;14.32;6.63;;;;;;;19.57;61.23;100830.97;4910331;29;20441;-75
2021/09/15 04:53:03;;;;;;;12.63;7.45;;;;;;;19.69;61.23;100827.09;4912024;29;20051;-76
2021/09/15 04:55:31;;;;;;;9.98;7.80;;;;;;;19.58;61.58;100831.81;4906086;29;20068;-76
2021/09/15 04:57:57;;;;;;;9.60;6.68;;;;;;;20.26;59.85;100835.03;4937071;28;20136;-75
2021/09/15 05:00:23;;;;;;;9.90;6.60;;;;;;;20.50;58.67;100823.53;4902941;29;20041;-78
2021/09/15 05:02:48;;;;;;;13.80;7.40;;;;;;;20.63;58.79;100840.03;4910292;29;20116;-76
2021/09/15 05:05:14;;;;;;;9.70;7.10;;;;;;;20.92;57.99;100841.63;4909811;29;20504;-76
2021/09/15 05:07:39;;;;;;;13.50;6.20;;;;;;;20.87;57.62;100848.94;4906588;29;20039;-75
2021/09/15 05:10:05;;;;;;;13.82;7.78;;;;;;;20.67;58.52;100844.28;4905683;29;20104;-78
2021/09/15 05:12:31;;;;;;;22.90;8.25;;;;;;;20.25;59.29;100820.81;4907343;29;20108;-75
2021/09/15 05:14:58;;;;;;;9.10;6.95;;;;;;;20.98;57.83;100845.91;4922914;29;20110;-75
2021/09/15 05:17:24;;;;;;;11.00;8.30;;;;;;;21.00;57.39;100834.25;4901286;29;20478;-75
2021/09/15 05:19:49;;;;;;;10.48;7.38;;;;;;;20.82;58.25;100864.25;4907803;29;20035;-76
2021/09/15 05:22:15;;;;;;;17.05;8.05;;;;;;;20.80;58.27;100860.75;4910968;29;20036;-74
2021/09/15 05:24:40;;;;;;;9.50;7.20;;;;;;;20.59;58.97;100843.72;4923727;29;20035;-77
2021/09/15 05:27:06;;;;;;;15.07;7.10;;;;;;;20.29;59.92;100856.25;4907460;29;20188;-76
2021/09/15 05:29:32;;;;;;;10.63;7.50;;;;;;;20.09;59.67;100836.47;4908156;29;20549;-79
2021/09/15 05:31:57;;;;;;;13.57;7.43;;;;;;;20.19;60.18;100866.34;4910174;29;20040;-76
2021/09/15 05:34:23;;;;;;;9.95;7.22;;;;;;;20.32;59.44;100851.69;4905476;29;20159;-76
2021/09/15 05:36:48;;;;;;;14.50;8.45;;;;;;;20.76;58.65;100859.13;4907016;29;20486;-74
2021/09/15 05:39:13;;;;;;;12.43;8.38;;;;;;;20.71;59.26;100829.94;4909117;29;20040;-76
2021/09/15 05:41:39;;;;;;;9.60;7.60;;;;;;;20.76;59.06;100856.44;4909432;29;20089;-73
2021/09/15 05:44:04;;;;;;;11.38;8.40;;;;;;;20.42;59.52;100829.13;4906012;29;20037;-76
2021/09/15 05:46:30;;;;;;;13.93;7.85;;;;;;;20.81;59.00;100866.06;4912943;29;20123;-77
2021/09/15 05:48:55;;;;;;;13.13;8.45;;;;;;;21.19;57.81;100837.09;4910087;29;20561;-75
2021/09/15 05:51:21;;;;;;;13.85;9.32;;;;;;;21.28;57.92;100860.78;4909553;29;20036;-75
2021/09/15 05:53:46;;;;;;;10.15;8.07;;;;;;;21.20;57.75;100859.31;4908992;29;20028;-75
2021/09/15 05:56:12;;;;;;;11.35;8.68;;;;;;;21.17;58.40;100862.97;4904245;29;20122;-74
2021/09/15 05:58:37;;;;;;;20.80;8.07;;;;;;;21.47;57.98;100865.47;4902072;29;20044;-75
2021/09/15 06:01:03;;;;;;;11.57;8.40;;;;;;;21.98;56.61;100848.28;4906930;29;20417;-75
2021/09/15 06:03:28;;;;;;;13.60;7.70;;;;;;;22.24;55.93;100868.69;4906474;29;20032;-74
2021/09/15 06:05:54;;;;;;;12.27;8.57;;;;;;;22.69;54.08;100845.41;4906555;29;20039;-74
2021/09/15 06:08:19;;;;;;;15.80;7.85;;;;;;;23.11;53.67;100858.72;4906732;29;20405;-74
2021/09/15 06:10:45;;;;;;;15.10;7.28;;;;;;;23.16;53.80;100851.34;4902637;29;20036;-70
2021/09/15 06:13:10;;;;;;;13.25;8.63;;;;;;;22.84;54.29;100852.75;4906192;29;20043;-66
2021/09/15 06:15:36;;;;;;;18.30;6.93;;;;;;;23.01;53.54;100846.66;4906808;29;20131;-65
2021/09/15 06:18:01;;;;;;;10.50;8.73;;;;;;;23.34;52.50;100875.53;4909015;29;20051;-64
2021/09/15 06:20:27;;;;;;;14.52;7.93;;;;;;;23.10;53.97;100877.50;4923821;29;20445;-65
2021/09/15 06:22:52;;;;;;;8.30;6.70;;;;;;;22.92;53.79;100869.34;4908398;29;20529;-66
2021/09/15 06:25:20;;;;;;;17.70;8.48;;;;;;;23.42;52.91;100873.38;4923692;29;20643;-66
2021/09/15 06:27:45;;;;;;;13.73;8.60;;;;;;;23.97;51.66;100878.81;4904942;29;20413;-67
2021/09/15 06:30:11;;;;;;;10.50;7.55;;;;;;;23.97;51.52;100876.13;4906125;29;20043;-65
2021/09/15 06:32:37;;;;;;;8.93;6.72;;;;;;;24.33;50.70;100855.66;4907490;29;20040;-65
2021/09/15 06:35:04;;;;;;;13.25;7.53;;;;;;;24.47;50.42;100884.47;4908011;29;20035;-66
2021/09/15 06:37:30;;;;;;;12.35;8.13;;;;;;;24.58;50.38;100874.97;4908833;29;20130;-67
2021/09/15 06:39:55;;;;;;;12.20;7.68;;;;;;;24.80;50.05;100888.13;4912092;29;20497;-67
2021/09/15 06:42:21;;;;;;;12.07;7.00;;;;;;;24.59;50.03;100882.06;4909248;29;20046;-68
2021/09/15 06:44:48;;;;;;;16.83;8.38;;;;;;;24.77;49.84;100866.84;4907474;29;20374;-66
2021/09/15 06:47:13;;;;;;;9.70;7.63;;;;;;;24.58;50.36;100869.59;4902826;29;20040;-64
2021/09/15 06:49:39;;;;;;;12.70;7.75;;;;;;;23.99;51.12;100850.13;4908738;29;20110;-65
2021/09/15 06:52:05;;;;;;;13.90;8.27;;;;;;;24.26;51.49;100889.97;4911552;29;20040;-66
2021/09/15 06:54:30;;;;;;;8.27;6.78;;;;;;;24.78;50.27;100886.50;4911825;29;20477;-66
2021/09/15 06:56:56;;;;;;;12.70;7.65;;;;;;;24.90;49.89;100893.03;4905496;29;20545;-67
2021/09/15 06:59:21;;;;;;;10.82;8.30;;;;;;;24.37;50.26;100867.94;4909573;29;20083;-67
2021/09/15 07:01:47;;;;;;;11.00;8.45;;;;;;;24.44;49.74;100872.06;4908288;29;20032;-66
2021/09/15 07:04:12;;;;;;;9.35;7.45;;;;;;;24.91;49.50;100895.66;4906134;29;20410;-68
2021/09/15 07:06:38;;;;;;;12.18;8.13;;;;;;;24.61;49.74;100869.44;4911089;29;20625;-67
2021/09/15 07:09:03;;;;;;;18.67;8.35;;;;;;;25.22;48.96;100892.22;4910095;29;20417;-69
2021/09/15 07:11:29;;;;;;;25.58;9.32;;;;;;;25.45;48.01;100895.47;4907296;29;20032;-65
2021/09/15 07:13:54;;;;;;;9.40;7.25;;;;;;;25.16;48.54;100880.91;4908660;29;20028;-68
2021/09/15 07:16:20;;;;;;;9.95;7.60;;;;;;;25.20;48.61;100894.13;4907950;29;20525;-66
2021/09/15 07:18:45;;;;;;;12.48;8.73;;;;;;;25.59;47.83;100902.78;4906369;29;20039;-66
2021/09/15 07:21:13;;;;;;;16.85;7.70;;;;;;;25.28;48.53;100883.81;4909326;29;20036;-68
2021/09/15 07:23:38;;;;;;;9.25;7.55;;;;;;;24.33;50.87;100904.81;4908857;29;20068;-64
2021/09/15 07:26:04;;;;;;;8.80;7.32;;;;;;;23.85;52.11;100881.25;4908388;29;20047;-66
2021/09/15 07:28:30;;;;;;;9.73;6.88;;;;;;;23.64;52.89;100902.72;4909321;29;20508;-66
2021/09/15 07:30:55;;;;;;;18.15;8.45;;;;;;;24.34;50.82;100862.75;4907730;29;20045;-66
2021/09/15 07:33:20;;;;;;;21.65;7.15;;;;;;;25.14;49.48;100904.28;4910598;29;20103;-66
2021/09/15 07:35:46;;;;;;;14.95;7.45;;;;;;;25.51;48.60;100888.91;4910872;29;20047;-64
2021/09/15 07:38:12;;;;;;;10.25;6.85;;;;;;;25.63;47.91;100899.00;4910316;29;20048;-67
2021/09/15 07:40:37;;;;;;;10.60;7.43;;;;;;;24.95;49.52;100885.59;4908507;29;20410;-66
2021/09/15 07:43:03;;;;;;;10.10;7.72;;;;;;;24.93;49.56;100906.28;4907170;29;20490;-67
2021/09/15 07:45:29;;;;;;;11.50;8.30;;;;;;;24.57;50.26;100886.63;4939596;28;20032;-65
2021/09/15 07:47:54;;;;;;;8.18;6.65;;;;;;;24.30;51.51;100899.56;4930970;29;20052;-66
2021/09/15 07:50:20;;;;;;;9.50;6.88;;;;;;;24.79;50.41;100901.63;4939928;28;20457;-64
2021/09/15 07:52:46;;;;;;;13.02;8.38;;;;;;;25.28;48.66;100866.84;4906978;29;20047;-67
2021/09/15 07:55:12;;;;;;;25.27;8.48;;;;;;;25.43;48.50;100909.03;4900480;29;20406;-68
2021/09/15 07:57:43;;;;;;;10.30;7.30;;;;;;;25.33;49.27;100905.06;4906860;29;20040;-66
2021/09/15 08:00:10;;;;;;;12.05;8.20;;;;;;;25.83;48.23;100911.34;4901393;29;20082;-66
2021/09/15 08:02:36;;;;;;;12.00;9.13;;;;;;;25.67;48.29;100904.13;4932068;29;20036;-65
2021/09/15 08:05:01;;;;;;;9.45;7.75;;;;;;;25.47;48.73;100898.94;4902941;29;20572;-70
2021/09/15 08:07:27;;;;;;;11.65;8.18;;;;;;;25.41;48.64;100892.09;4907847;29;20113;-69
2021/09/15 08:09:52;;;;;;;11.77;8.68;;;;;;;24.81;49.66;100900.59;4904133;29;20051;-68
2021/09/15 08:12:18;;;;;;;10.65;7.63;;;;;;;24.70;50.32;100900.31;4904218;29;20564;-69
2021/09/15 08:14:43;;;;;;;13.90;8.40;;;;;;;25.65;48.07;100899.78;4904129;29;20028;-69
2021/09/15 08:17:09;;;;;;;15.07;8.55;;;;;;;25.31;49.39;100898.03;4907393;29;20584;-69
2021/09/15 08:19:34;;;;;;;12.80;8.43;;;;;;;25.69;48.20;100893.28;4907307;29;20036;-68
2021/09/15 08:22:00;;;;;;;11.75;8.60;;;;;;;25.34;48.56;100871.91;4909342;29;20501;-67
2021/09/15 08:24:25;;;;;;;10.27;7.78;;;;;;;25.58;48.26;100890.31;4907314;29;20458;-67
2021/09/15 08:26:51;;;;;;;14.25;8.32;;;;;;;25.86;48.09;100893.22;4923344;29;20780;-71
2021/09/15 08:29:16;;;;;;;9.65;6.32;;;;;;;25.27;48.20;100867.81;4909062;29;20079;-70
2021/09/15 08:31:42;;;;;;;12.98;9.18;;;;;;;24.87;48.29;100886.00;4900873;29;20072;-70
2021/09/15 08:34:08;;;;;;;10.32;7.45;;;;;;;24.87;49.19;100882.47;4902878;29;20035;-68
2021/09/15 08:36:33;;;;;;;10.35;8.00;;;;;;;25.24;48.68;100884.09;4905111;29;20072;-68
2021/09/15 08:38:59;;;;;;;8.25;6.47;;;;;;;25.62;47.24;100890.06;4907745;29;20036;-69
2021/09/15 08:41:25;;;;;;;12.40;9.45;;;;;;;25.58;47.83;100893.00;4902217;29;20040;-68
2021/09/15 08:43:51;;;;;;;11.95;8.27;;;;;;;25.35;48.57;100887.06;4907553;29;20036;-67
2021/09/15 08:46:20;;;;;;;10.73;7.45;;;;;;;26.26;46.93;100885.56;4917587;29;20482;-65
2021/09/15 08:48:47;;;;;;;12.35;8.52;;;;;;;26.43;46.09;100881.88;4905861;29;20052;-66
2021/09/15 08:51:16;;;;;;;18.38;8.43;;;;;;;25.80;46.73;100887.28;4909367;29;20035;-67
2021/09/15 08:53:43;;;;;;;9.98;7.53;;;;;;;25.37;47.60;100876.22;4938162;29;20135;-67
2021/09/15 08:56:10;;;;;;;15.10;8.02;;;;;;;25.52;47.73;100879.88;4893602;29;20044;-65
2021/09/15 08:58:36;;;;;;;14.20;7.32;;;;;;;25.80;47.16;100868.47;4903330;29;20040;-68
2021/09/15 09:01:23;;;;;;;11.05;8.30;;;;;;;26.09;46.50;100869.56;4938205;28;21071;-70
2021/09/15 09:03:52;;;;;;;15.15;6.75;;;;;;;25.98;45.56;100875.53;4897737;29;20035;-67
2021/09/15 09:06:21;;;;;;;12.35;7.13;;;;;;;26.02;45.67;100869.03;4908203;29;20466;-68
2021/09/15 09:08:52;;;;;;;9.57;6.80;;;;;;;26.39;43.94;100874.13;4925106;29;20054;-68
2021/09/15 09:11:19;;;;;;;6.87;5.87;;;;;;;26.35;43.67;100869.84;4903734;29;20032;-67
2021/09/15 09:13:49;;;;;;;12.70;5.85;;;;;;;26.48;43.48;100852.91;4906354;29;20044;-70
2021/09/15 09:16:18;;;;;;;11.60;6.70;;;;;;;26.68;44.09;100861.63;4903975;29;20411;-64
2021/09/15 09:19:01;;;;;;;9.65;6.22;;;;;;;27.22;43.57;100861.06;4922445;29;20024;-63
2021/09/15 09:21:32;;;;;;;13.70;6.72;;;;;;;26.95;42.93;100856.41;4910714;29;20036;-65
2021/09/15 09:24:01;;;;;;;10.40;7.20;;;;;;;27.41;42.67;100844.59;4908387;29;20172;-64
2021/09/15 09:26:50;;;;;;;10.68;6.00;;;;;;;27.35;42.65;100849.41;4924526;29;24597;-67
2021/09/15 09:29:24;;;;;;;17.88;7.63;;;;;;;26.80;44.02;100854.63;4911197;29;20042;-65
2021/09/15 09:31:58;;;;;;;8.35;6.35;;;;;;;26.66;42.83;100850.94;4903495;29;20032;-64
2021/09/15 09:34:24;;;;;;;14.77;7.22;;;;;;;26.68;43.02;100845.47;4912641;29;20032;-65
2021/09/15 09:37:05;;;;;;;13.55;6.57;;;;;;;27.35;42.49;100851.25;4925621;29;20028;-63
2021/09/15 09:39:41;;;;;;;10.82;8.43;;;;;;;26.99;43.22;100847.16;4923972;29;20074;-65
2021/09/15 09:42:34;;;;;;;12.25;7.05;;;;;;;26.48;43.91;100849.31;4912265;29;20136;-63
2021/09/15 09:45:06;;;;;;;8.93;8.02;;;;;;;26.48;44.13;100850.22;4906429;29;20119;-63
2021/09/15 09:47:33;;;;;;;8.02;6.20;;;;;;;27.02;42.48;100813.75;4907703;29;20120;-63
2021/09/15 09:50:00;;;;;;;10.98;8.18;;;;;;;26.63;43.62;100821.53;4911064;29;20435;-64
2021/09/15 09:52:26;;;;;;;9.07;6.78;;;;;;;27.04;42.82;100818.13;4910004;29;20040;-63
2021/09/15 09:54:58;;;;;;;13.18;7.60;;;;;;;27.04;42.86;100831.59;4904792;29;20044;-64
2021/09/15 09:57:25;;;;;;;14.65;7.60;;;;;;;27.04;42.60;100814.53;4907783;29;20556;-65
2021/09/15 09:59:51;;;;;;;11.00;7.28;;;;;;;27.44;42.59;100833.59;4907607;29;20074;-64
2021/09/15 10:02:17;;;;;;;11.48;8.38;;;;;;;27.44;42.16;100810.25;4912614;29;20036;-62
2021/09/15 10:04:43;;;;;;;13.13;7.32;;;;;;;27.99;41.42;100830.06;4908864;29;20143;-64
2021/09/15 10:07:12;;;;;;;9.13;5.80;;;;;;;28.29;40.76;100805.53;4900209;29;20036;-64
2021/09/15 10:09:39;;;;;;;14.30;7.20;;;;;;;27.90;40.73;100838.75;4902148;29;20049;-64
2021/09/15 10:12:07;;;;;;;9.23;7.70;;;;;;;27.00;42.61;100804.94;4906207;29;20056;-70
2021/09/15 10:14:33;;;;;;;8.68;7.22;;;;;;;27.29;42.18;100803.97;4899712;29;20731;-72
2021/09/15 10:17:04;;;;;;;10.30;6.43;;;;;;;26.95;42.56;100819.56;4909100;29;20044;-66
2021/09/15 10:19:33;;;;;;;9.07;6.85;;;;;;;27.14;41.91;100821.97;4906131;29;20044;-66
2021/09/15 10:22:02;;;;;;;8.73;6.40;;;;;;;27.66;41.33;100798.06;4908170;29;20056;-65
2021/09/15 10:24:49;;;;;;;11.80;7.78;;;;;;;28.53;39.70;100816.53;4904093;29;20051;-65
2021/09/15 10:27:16;;;;;;;7.40;6.60;;;;;;;27.38;41.61;100815.16;4900365;29;20060;-64
2021/09/15 10:29:43;;;;;;;10.05;6.22;;;;;;;27.96;39.89;100814.94;4907058;29;20517;-66
2021/09/15 10:32:12;;;;;;;14.40;6.18;;;;;;;28.09;39.69;100817.66;4908311;29;20047;-65
2021/09/15 10:34:40;;;;;;;8.55;6.65;;;;;;;28.30;39.67;100809.09;4905448;29;20383;-65
2021/09/15 10:37:11;;;;;;;7.18;6.15;;;;;;;28.60;40.22;100800.75;4906979;29;20121;-62
2021/09/15 10:40:10;;;;;;;11.85;7.10;;;;;;;29.01;39.04;100805.09;4907135;29;20526;-64
2021/09/15 10:42:37;;;;;;;14.93;8.25;;;;;;;28.90;39.13;100800.44;4903964;29;20084;-66
2021/09/15 10:45:14;;;;;;;9.38;7.35;;;;;;;28.39;39.11;100801.22;4907884;29;20813;-68
2021/09/15 10:47:44;;;;;;;8.43;6.65;;;;;;;28.36;39.72;100787.97;4907500;29;20040;-67
2021/09/15 10:50:12;;;;;;;9.27;7.18;;;;;;;28.78;38.70;100766.22;4939457;29;20028;-66
2021/09/15 10:52:42;;;;;;;9.82;6.95;;;;;;;29.16;38.53;100778.84;4908585;29;20046;-64
2021/09/15 10:55:22;;;;;;;16.10;7.30;;;;;;;29.30;38.39;100778.69;4902770;29;20036;-65
2021/09/15 10:57:49;;;;;;;11.23;7.78;;;;;;;29.61;37.49;100766.47;4906972;29;20131;-63
2021/09/15 11:00:17;;;;;;;9.57;6.80;;;;;;;30.56;35.97;100766.56;4910775;29;20043;-64
2021/09/15 11:02:46;;;;;;;8.50;6.55;;;;;;;30.57;35.76;100762.00;4928167;29;20041;-64
2021/09/15 11:05:26;;;;;;;8.85;6.68;;;;;;;29.11;37.53;100775.63;4908303;29;20040;-63
2021/09/15 11:07:55;;;;;;;12.50;6.55;;;;;;;29.17;38.47;100772.44;4908330;29;20066;-64
2021/09/15 11:10:38;;;;;;;16.75;7.78;;;;;;;29.75;37.24;100767.34;4911343;29;20040;-65
2021/09/15 11:13:36;;;;;;;8.20;6.68;;;;;;;29.04;38.14;100761.63;4901197;29;20055;-64
2021/09/15 11:16:26;;;;;;;17.30;7.80;;;;;;;30.02;36.60;100757.13;4898547;29;20107;-64
2021/09/15 11:19:17;;;;;;;15.55;6.60;;;;;;;29.85;36.96;100734.06;4907394;29;20043;-65
2021/09/15 11:21:55;;;;;;;9.70;7.15;;;;;;;29.98;36.40;100747.50;4907499;29;20040;-63
2021/09/15 11:24:23;;;;;;;8.00;6.05;;;;;;;30.33;36.35;100748.53;4908227;29;20040;-65
2021/09/15 11:27:03;;;;;;;15.40;8.20;;;;;;;29.21;37.10;100746.94;4906961;29;20047;-65
2021/09/15 11:29:44;;;;;;;23.48;14.57;;;;;;;29.20;37.52;100723.59;4910343;29;20119;-62